sensor_id;sensor_type;location;lat;lon;timestamp;P1;durP1;ratioP1;P2;durP2;ratioP2
44384;SDS011;30101;32.778;34.994;2022-10-26T00:03:21;37.28;;;8.48;;
44384;SDS011;30101;32.778;34.994;2022-10-26T00:08:24;32.78;;;9.80;;
44384;SDS011;30101;32.778;34.994;2022-10-26T00:13:28;27.13;;;7.90;;
44384;SDS011;30101;32.778;34.994;2022-10-26T00:18:32;36.85;;;11.15;;
44384;SDS011;30101;32.778;34.994;2022-10-26T00:23:35;49.05;;;10.07;;
44384;SDS011;30101;32.778;34.994;2022-10-26T00:28:39;32.25;;;8.35;;
44384;SDS011;30101;32.778;34.994;2022-10-26T00:33:43;38.92;;;9.75;;
44384;SDS011;30101;32.778;34.994;2022-10-26T00:38:50;25.42;;;8.48;;
44384;SDS011;30101;32.778;34.994;2022-10-26T00:43:55;30.48;;;8.88;;
44384;SDS011;30101;32.778;34.994;2022-10-26T00:49:04;36.70;;;8.32;;
44384;SDS011;30101;32.778;34.994;2022-10-26T00:54:15;30.77;;;9.40;;
44384;SDS011;30101;32.778;34.994;2022-10-26T00:59:20;35.75;;;8.27;;
44384;SDS011;30101;32.778;34.994;2022-10-26T01:04:25;25.25;;;7.65;;
44384;SDS011;30101;32.778;34.994;2022-10-26T01:09:29;25.65;;;8.52;;
44384;SDS011;30101;32.778;34.994;2022-10-26T01:14:34;22.23;;;7.90;;
44384;SDS011;30101;32.778;34.994;2022-10-26T01:25:16;23.05;;;6.93;;
44384;SDS011;30101;32.778;34.994;2022-10-26T01:30:44;25.92;;;8.20;;
44384;SDS011;30101;32.778;34.994;2022-10-26T01:41:12;19.85;;;7.40;;
44384;SDS011;30101;32.778;34.994;2022-10-26T01:46:26;26.90;;;6.40;;
44384;SDS011;30101;32.778;34.994;2022-10-26T01:51:32;21.30;;;7.40;;
44384;SDS011;30101;32.778;34.994;2022-10-26T01:56:38;17.73;;;6.93;;
44384;SDS011;30101;32.778;34.994;2022-10-26T02:01:48;21.17;;;6.50;;
44384;SDS011;30101;32.778;34.994;2022-10-26T02:23:44;19.55;;;5.88;;
44384;SDS011;30101;32.778;34.994;2022-10-26T02:28:50;21.83;;;7.32;;
44384;SDS011;30101;32.778;34.994;2022-10-26T02:33:58;15.80;;;5.90;;
44384;SDS011;30101;32.778;34.994;2022-10-26T02:39:06;19.48;;;6.85;;
44384;SDS011;30101;32.778;34.994;2022-10-26T02:49:29;19.58;;;6.25;;
44384;SDS011;30101;32.778;34.994;2022-10-26T03:00:27;21.98;;;5.78;;
44384;SDS011;30101;32.778;34.994;2022-10-26T03:05:31;18.92;;;6.55;;
44384;SDS011;30101;32.778;34.994;2022-10-26T03:10:37;28.48;;;6.30;;
44384;SDS011;30101;32.778;34.994;2022-10-26T03:15:43;18.95;;;5.63;;
44384;SDS011;30101;32.778;34.994;2022-10-26T03:20:47;13.50;;;5.35;;
44384;SDS011;30101;32.778;34.994;2022-10-26T03:25:50;19.15;;;7.30;;
44384;SDS011;30101;32.778;34.994;2022-10-26T03:30:53;15.98;;;6.63;;
44384;SDS011;30101;32.778;34.994;2022-10-26T03:35:57;18.63;;;6.45;;
44384;SDS011;30101;32.778;34.994;2022-10-26T03:41:00;19.45;;;5.47;;
44384;SDS011;30101;32.778;34.994;2022-10-26T03:46:04;16.58;;;5.82;;
44384;SDS011;30101;32.778;34.994;2022-10-26T03:51:07;28.92;;;7.78;;
44384;SDS011;30101;32.778;34.994;2022-10-26T03:56:11;19.25;;;6.53;;
44384;SDS011;30101;32.778;34.994;2022-10-26T04:01:14;24.75;;;6.90;;
44384;SDS011;30101;32.778;34.994;2022-10-26T04:06:17;20.90;;;6.65;;
44384;SDS011;30101;32.778;34.994;2022-10-26T04:11:21;10.68;;;5.50;;
44384;SDS011;30101;32.778;34.994;2022-10-26T04:16:24;14.85;;;5.78;;
44384;SDS011;30101;32.778;34.994;2022-10-26T04:21:34;12.68;;;6.95;;
44384;SDS011;30101;32.778;34.994;2022-10-26T04:26:38;11.80;;;5.75;;
44384;SDS011;30101;32.778;34.994;2022-10-26T04:31:41;12.23;;;5.65;;
44384;SDS011;30101;32.778;34.994;2022-10-26T04:36:45;26.48;;;6.32;;
44384;SDS011;30101;32.778;34.994;2022-10-26T04:41:49;17.23;;;6.60;;
44384;SDS011;30101;32.778;34.994;2022-10-26T04:47:00;28.83;;;6.15;;
44384;SDS011;30101;32.778;34.994;2022-10-26T04:52:04;15.48;;;5.72;;
44384;SDS011;30101;32.778;34.994;2022-10-26T04:57:08;22.92;;;6.30;;
44384;SDS011;30101;32.778;34.994;2022-10-26T05:02:11;16.88;;;6.07;;
44384;SDS011;30101;32.778;34.994;2022-10-26T05:07:15;14.82;;;5.75;;
44384;SDS011;30101;32.778;34.994;2022-10-26T05:12:19;16.98;;;6.65;;
44384;SDS011;30101;32.778;34.994;2022-10-26T05:17:22;18.02;;;6.30;;
44384;SDS011;30101;32.778;34.994;2022-10-26T05:22:26;15.23;;;6.32;;
44384;SDS011;30101;32.778;34.994;2022-10-26T05:27:30;21.98;;;6.90;;
44384;SDS011;30101;32.778;34.994;2022-10-26T05:32:33;16.23;;;5.78;;
44384;SDS011;30101;32.778;34.994;2022-10-26T05:37:36;14.80;;;5.80;;
44384;SDS011;30101;32.778;34.994;2022-10-26T05:42:40;20.88;;;6.43;;
44384;SDS011;30101;32.778;34.994;2022-10-26T05:47:44;25.15;;;6.22;;
44384;SDS011;30101;32.778;34.994;2022-10-26T05:52:48;23.35;;;6.95;;
44384;SDS011;30101;32.778;34.994;2022-10-26T05:57:52;15.93;;;6.72;;
44384;SDS011;30101;32.778;34.994;2022-10-26T06:08:17;31.53;;;10.00;;
44384;SDS011;30101;32.778;34.994;2022-10-26T06:13:22;29.42;;;10.18;;
44384;SDS011;30101;32.778;34.994;2022-10-26T06:18:33;20.98;;;10.00;;
44384;SDS011;30101;32.778;34.994;2022-10-26T06:34:28;21.20;;;10.43;;
44384;SDS011;30101;32.778;34.994;2022-10-26T06:39:37;33.05;;;11.68;;
44384;SDS011;30101;32.778;34.994;2022-10-26T06:44:45;24.73;;;9.35;;
44384;SDS011;30101;32.778;34.994;2022-10-26T06:50:02;21.50;;;8.57;;
44384;SDS011;30101;32.778;34.994;2022-10-26T06:55:27;26.77;;;9.40;;
44384;SDS011;30101;32.778;34.994;2022-10-26T07:00:39;21.92;;;8.13;;
44384;SDS011;30101;32.778;34.994;2022-10-26T07:05:43;12.35;;;6.15;;
44384;SDS011;30101;32.778;34.994;2022-10-26T07:10:51;18.80;;;7.13;;
44384;SDS011;30101;32.778;34.994;2022-10-26T07:15:55;12.45;;;6.68;;
44384;SDS011;30101;32.778;34.994;2022-10-26T07:20:59;8.45;;;5.13;;
44384;SDS011;30101;32.778;34.994;2022-10-26T07:26:08;13.43;;;4.68;;
44384;SDS011;30101;32.778;34.994;2022-10-26T07:31:12;20.02;;;8.85;;
44384;SDS011;30101;32.778;34.994;2022-10-26T07:41:18;19.98;;;8.18;;
44384;SDS011;30101;32.778;34.994;2022-10-26T07:46:22;20.50;;;6.20;;
44384;SDS011;30101;32.778;34.994;2022-10-26T07:51:26;18.20;;;8.18;;
44384;SDS011;30101;32.778;34.994;2022-10-26T07:56:29;19.55;;;7.78;;
44384;SDS011;30101;32.778;34.994;2022-10-26T08:01:33;16.90;;;7.90;;
44384;SDS011;30101;32.778;34.994;2022-10-26T08:06:41;24.27;;;10.05;;
44384;SDS011;30101;32.778;34.994;2022-10-26T08:11:44;20.60;;;10.88;;
44384;SDS011;30101;32.778;34.994;2022-10-26T08:16:48;21.45;;;9.20;;
44384;SDS011;30101;32.778;34.994;2022-10-26T08:21:52;23.13;;;10.00;;
44384;SDS011;30101;32.778;34.994;2022-10-26T08:27:01;29.75;;;8.48;;
44384;SDS011;30101;32.778;34.994;2022-10-26T08:32:10;16.60;;;8.93;;
44384;SDS011;30101;32.778;34.994;2022-10-26T08:37:14;23.25;;;8.55;;
44384;SDS011;30101;32.778;34.994;2022-10-26T08:42:18;18.52;;;7.78;;
44384;SDS011;30101;32.778;34.994;2022-10-26T08:47:30;25.00;;;8.73;;
44384;SDS011;30101;32.778;34.994;2022-10-26T08:52:45;23.25;;;8.45;;
44384;SDS011;30101;32.778;34.994;2022-10-26T08:57:55;21.83;;;7.35;;
44384;SDS011;30101;32.778;34.994;2022-10-26T09:02:59;18.98;;;6.80;;
44384;SDS011;30101;32.778;34.994;2022-10-26T09:24:28;19.58;;;6.88;;
44384;SDS011;30101;32.778;34.994;2022-10-26T09:29:35;20.33;;;5.80;;
44384;SDS011;30101;32.778;34.994;2022-10-26T09:34:54;15.35;;;5.65;;
44384;SDS011;30101;32.778;34.994;2022-10-26T09:45:29;18.30;;;6.07;;
44384;SDS011;30101;32.778;34.994;2022-10-26T09:50:36;21.35;;;5.35;;
44384;SDS011;30101;32.778;34.994;2022-10-26T09:55:42;21.38;;;6.18;;
44384;SDS011;30101;32.778;34.994;2022-10-26T10:00:48;14.13;;;4.88;;
44384;SDS011;30101;32.778;34.994;2022-10-26T10:11:20;14.35;;;5.00;;
44384;SDS011;30101;32.778;34.994;2022-10-26T10:16:24;24.25;;;5.85;;
44384;SDS011;30101;32.778;34.994;2022-10-26T10:21:47;15.02;;;5.47;;
44384;SDS011;30101;32.778;34.994;2022-10-26T10:32:11;16.08;;;5.32;;
44384;SDS011;30101;32.778;34.994;2022-10-26T10:37:34;17.63;;;5.87;;
44384;SDS011;30101;32.778;34.994;2022-10-26T10:42:40;20.15;;;5.72;;
44384;SDS011;30101;32.778;34.994;2022-10-26T10:53:18;14.02;;;5.72;;
44384;SDS011;30101;32.778;34.994;2022-10-26T10:59:26;17.48;;;5.75;;
44384;SDS011;30101;32.778;34.994;2022-10-26T11:09:48;27.55;;;6.05;;
44384;SDS011;30101;32.778;34.994;2022-10-26T11:15:11;13.67;;;6.87;;
44384;SDS011;30101;32.778;34.994;2022-10-26T11:20:19;12.80;;;5.95;;
44384;SDS011;30101;32.778;34.994;2022-10-26T11:25:29;13.50;;;5.80;;
44384;SDS011;30101;32.778;34.994;2022-10-26T11:30:40;13.30;;;6.50;;
44384;SDS011;30101;32.778;34.994;2022-10-26T11:36:03;26.95;;;7.78;;
44384;SDS011;30101;32.778;34.994;2022-10-26T11:41:20;11.27;;;6.25;;
44384;SDS011;30101;32.778;34.994;2022-10-26T11:46:31;16.08;;;5.93;;
44384;SDS011;30101;32.778;34.994;2022-10-26T11:51:40;14.45;;;5.60;;
44384;SDS011;30101;32.778;34.994;2022-10-26T11:56:46;14.32;;;5.05;;
44384;SDS011;30101;32.778;34.994;2022-10-26T12:01:52;15.32;;;6.20;;
44384;SDS011;30101;32.778;34.994;2022-10-26T12:07:00;18.75;;;6.40;;
44384;SDS011;30101;32.778;34.994;2022-10-26T12:27:57;13.68;;;5.55;;
44384;SDS011;30101;32.778;34.994;2022-10-26T12:33:26;12.07;;;5.15;;
44384;SDS011;30101;32.778;34.994;2022-10-26T12:43:40;13.68;;;5.40;;
44384;SDS011;30101;32.778;34.994;2022-10-26T12:48:45;18.13;;;5.43;;
44384;SDS011;30101;32.778;34.994;2022-10-26T12:54:39;16.38;;;5.25;;
44384;SDS011;30101;32.778;34.994;2022-10-26T13:04:59;17.02;;;5.68;;
44384;SDS011;30101;32.778;34.994;2022-10-26T13:10:22;13.65;;;5.00;;
44384;SDS011;30101;32.778;34.994;2022-10-26T13:15:30;10.90;;;5.45;;
44384;SDS011;30101;32.778;34.994;2022-10-26T13:41:48;12.65;;;5.07;;
44384;SDS011;30101;32.778;34.994;2022-10-26T13:46:55;16.35;;;5.10;;
44384;SDS011;30101;32.778;34.994;2022-10-26T13:52:03;9.05;;;5.07;;
44384;SDS011;30101;32.778;34.994;2022-10-26T13:57:22;12.00;;;4.93;;
44384;SDS011;30101;32.778;34.994;2022-10-26T14:02:46;13.75;;;5.00;;
44384;SDS011;30101;32.778;34.994;2022-10-26T14:07:56;9.30;;;5.28;;
44384;SDS011;30101;32.778;34.994;2022-10-26T14:13:01;18.85;;;5.22;;
44384;SDS011;30101;32.778;34.994;2022-10-26T14:18:11;11.18;;;4.82;;
44384;SDS011;30101;32.778;34.994;2022-10-26T14:23:36;14.75;;;5.32;;
44384;SDS011;30101;32.778;34.994;2022-10-26T14:28:55;11.40;;;4.60;;
44384;SDS011;30101;32.778;34.994;2022-10-26T14:34:04;13.48;;;5.68;;
44384;SDS011;30101;32.778;34.994;2022-10-26T14:44:36;12.18;;;4.80;;
44384;SDS011;30101;32.778;34.994;2022-10-26T14:49:43;13.40;;;4.63;;
44384;SDS011;30101;32.778;34.994;2022-10-26T14:54:57;7.47;;;4.60;;
44384;SDS011;30101;32.778;34.994;2022-10-26T15:00:11;10.77;;;4.57;;
44384;SDS011;30101;32.778;34.994;2022-10-26T15:05:27;8.55;;;4.72;;
44384;SDS011;30101;32.778;34.994;2022-10-26T15:15:41;9.60;;;4.85;;
44384;SDS011;30101;32.778;34.994;2022-10-26T15:20:51;23.58;;;5.20;;
44384;SDS011;30101;32.778;34.994;2022-10-26T15:25:56;11.05;;;5.72;;
44384;SDS011;30101;32.778;34.994;2022-10-26T15:31:04;11.80;;;5.03;;
44384;SDS011;30101;32.778;34.994;2022-10-26T15:36:10;9.50;;;5.47;;
44384;SDS011;30101;32.778;34.994;2022-10-26T15:41:22;9.02;;;5.22;;
44384;SDS011;30101;32.778;34.994;2022-10-26T15:46:30;15.52;;;4.97;;
44384;SDS011;30101;32.778;34.994;2022-10-26T15:51:36;11.55;;;5.03;;
44384;SDS011;30101;32.778;34.994;2022-10-26T15:56:40;10.07;;;4.93;;
44384;SDS011;30101;32.778;34.994;2022-10-26T16:01:44;10.95;;;5.25;;
44384;SDS011;30101;32.778;34.994;2022-10-26T16:06:48;15.85;;;5.07;;
44384;SDS011;30101;32.778;34.994;2022-10-26T16:11:52;12.48;;;5.15;;
44384;SDS011;30101;32.778;34.994;2022-10-26T16:16:56;12.48;;;5.13;;
44384;SDS011;30101;32.778;34.994;2022-10-26T16:22:02;12.95;;;4.70;;
44384;SDS011;30101;32.778;34.994;2022-10-26T16:27:05;9.00;;;4.95;;
44384;SDS011;30101;32.778;34.994;2022-10-26T16:32:09;10.20;;;5.00;;
44384;SDS011;30101;32.778;34.994;2022-10-26T16:37:12;12.77;;;4.90;;
44384;SDS011;30101;32.778;34.994;2022-10-26T16:42:15;9.20;;;5.07;;
44384;SDS011;30101;32.778;34.994;2022-10-26T16:47:19;8.02;;;5.47;;
44384;SDS011;30101;32.778;34.994;2022-10-26T16:52:27;8.32;;;4.85;;
44384;SDS011;30101;32.778;34.994;2022-10-26T16:57:32;8.73;;;5.28;;
44384;SDS011;30101;32.778;34.994;2022-10-26T17:02:37;11.50;;;5.38;;
44384;SDS011;30101;32.778;34.994;2022-10-26T17:07:41;14.18;;;5.45;;
44384;SDS011;30101;32.778;34.994;2022-10-26T17:12:45;8.25;;;5.05;;
44384;SDS011;30101;32.778;34.994;2022-10-26T17:17:48;9.75;;;4.90;;
44384;SDS011;30101;32.778;34.994;2022-10-26T17:22:52;10.40;;;6.13;;
44384;SDS011;30101;32.778;34.994;2022-10-26T17:27:57;12.77;;;6.10;;
44384;SDS011;30101;32.778;34.994;2022-10-26T17:33:01;10.95;;;6.28;;
44384;SDS011;30101;32.778;34.994;2022-10-26T17:38:04;11.45;;;5.43;;
44384;SDS011;30101;32.778;34.994;2022-10-26T17:43:08;12.57;;;5.75;;
44384;SDS011;30101;32.778;34.994;2022-10-26T17:48:11;10.43;;;5.07;;
44384;SDS011;30101;32.778;34.994;2022-10-26T17:53:15;7.85;;;5.10;;
44384;SDS011;30101;32.778;34.994;2022-10-26T17:58:25;11.98;;;5.22;;
44384;SDS011;30101;32.778;34.994;2022-10-26T18:03:29;9.60;;;5.13;;
44384;SDS011;30101;32.778;34.994;2022-10-26T18:08:33;12.25;;;6.00;;
44384;SDS011;30101;32.778;34.994;2022-10-26T18:13:38;12.65;;;5.05;;
44384;SDS011;30101;32.778;34.994;2022-10-26T18:18:42;13.65;;;7.00;;
44384;SDS011;30101;32.778;34.994;2022-10-26T18:23:51;9.13;;;5.20;;
44384;SDS011;30101;32.778;34.994;2022-10-26T18:28:56;10.63;;;5.05;;
44384;SDS011;30101;32.778;34.994;2022-10-26T18:34:02;13.23;;;5.28;;
44384;SDS011;30101;32.778;34.994;2022-10-26T18:39:07;17.45;;;5.82;;
44384;SDS011;30101;32.778;34.994;2022-10-26T18:44:11;11.43;;;5.65;;
44384;SDS011;30101;32.778;34.994;2022-10-26T18:49:15;12.55;;;5.13;;
44384;SDS011;30101;32.778;34.994;2022-10-26T18:54:18;10.93;;;5.32;;
44384;SDS011;30101;32.778;34.994;2022-10-26T18:59:24;9.60;;;4.93;;
44384;SDS011;30101;32.778;34.994;2022-10-26T19:04:28;11.15;;;4.85;;
44384;SDS011;30101;32.778;34.994;2022-10-26T19:09:31;17.38;;;5.68;;
44384;SDS011;30101;32.778;34.994;2022-10-26T19:14:34;10.50;;;4.85;;
44384;SDS011;30101;32.778;34.994;2022-10-26T19:19:37;12.48;;;4.82;;
44384;SDS011;30101;32.778;34.994;2022-10-26T19:24:41;14.70;;;5.63;;
44384;SDS011;30101;32.778;34.994;2022-10-26T19:29:44;14.88;;;4.90;;
44384;SDS011;30101;32.778;34.994;2022-10-26T19:34:48;12.73;;;5.63;;
44384;SDS011;30101;32.778;34.994;2022-10-26T19:39:52;17.65;;;5.15;;
44384;SDS011;30101;32.778;34.994;2022-10-26T19:44:55;13.98;;;5.93;;
44384;SDS011;30101;32.778;34.994;2022-10-26T19:49:59;11.52;;;5.53;;
44384;SDS011;30101;32.778;34.994;2022-10-26T19:55:02;7.80;;;5.18;;
44384;SDS011;30101;32.778;34.994;2022-10-26T20:00:07;8.77;;;4.78;;
44384;SDS011;30101;32.778;34.994;2022-10-26T20:05:13;12.77;;;5.40;;
44384;SDS011;30101;32.778;34.994;2022-10-26T20:10:17;14.38;;;5.65;;
44384;SDS011;30101;32.778;34.994;2022-10-26T20:15:20;10.95;;;5.40;;
44384;SDS011;30101;32.778;34.994;2022-10-26T20:20:23;12.05;;;5.10;;
44384;SDS011;30101;32.778;34.994;2022-10-26T20:25:27;13.88;;;4.68;;
44384;SDS011;30101;32.778;34.994;2022-10-26T20:30:31;12.02;;;5.60;;
44384;SDS011;30101;32.778;34.994;2022-10-26T20:35:35;11.20;;;4.72;;
44384;SDS011;30101;32.778;34.994;2022-10-26T20:40:39;10.95;;;4.90;;
44384;SDS011;30101;32.778;34.994;2022-10-26T20:45:42;12.35;;;4.95;;
44384;SDS011;30101;32.778;34.994;2022-10-26T20:50:53;13.75;;;4.28;;
44384;SDS011;30101;32.778;34.994;2022-10-26T20:56:05;9.45;;;4.90;;
44384;SDS011;30101;32.778;34.994;2022-10-26T21:01:23;14.27;;;5.13;;
44384;SDS011;30101;32.778;34.994;2022-10-26T21:06:32;14.45;;;5.18;;
44384;SDS011;30101;32.778;34.994;2022-10-26T21:11:35;8.05;;;4.80;;
44384;SDS011;30101;32.778;34.994;2022-10-26T21:16:39;15.80;;;5.78;;
44384;SDS011;30101;32.778;34.994;2022-10-26T21:21:46;9.75;;;4.63;;
44384;SDS011;30101;32.778;34.994;2022-10-26T21:26:49;10.82;;;5.50;;
44384;SDS011;30101;32.778;34.994;2022-10-26T21:31:53;13.40;;;5.00;;
44384;SDS011;30101;32.778;34.994;2022-10-26T21:36:56;14.57;;;5.10;;
44384;SDS011;30101;32.778;34.994;2022-10-26T21:42:00;14.43;;;5.32;;
44384;SDS011;30101;32.778;34.994;2022-10-26T21:47:03;20.67;;;5.07;;
44384;SDS011;30101;32.778;34.994;2022-10-26T21:52:07;17.38;;;5.20;;
44384;SDS011;30101;32.778;34.994;2022-10-26T21:57:10;11.82;;;4.72;;
44384;SDS011;30101;32.778;34.994;2022-10-26T22:02:14;13.00;;;4.82;;
44384;SDS011;30101;32.778;34.994;2022-10-26T22:07:17;11.75;;;5.20;;
44384;SDS011;30101;32.778;34.994;2022-10-26T22:12:20;14.57;;;5.65;;
44384;SDS011;30101;32.778;34.994;2022-10-26T22:17:26;11.75;;;4.68;;
44384;SDS011;30101;32.778;34.994;2022-10-26T22:22:30;12.70;;;4.95;;
44384;SDS011;30101;32.778;34.994;2022-10-26T22:27:33;11.07;;;5.05;;
44384;SDS011;30101;32.778;34.994;2022-10-26T22:32:36;8.43;;;4.95;;
44384;SDS011;30101;32.778;34.994;2022-10-26T22:37:43;8.95;;;4.95;;
44384;SDS011;30101;32.778;34.994;2022-10-26T22:42:49;13.20;;;4.82;;
44384;SDS011;30101;32.778;34.994;2022-10-26T22:47:57;11.15;;;5.15;;
44384;SDS011;30101;32.778;34.994;2022-10-26T22:53:00;13.05;;;4.45;;
44384;SDS011;30101;32.778;34.994;2022-10-26T22:58:04;16.38;;;5.35;;
44384;SDS011;30101;32.778;34.994;2022-10-26T23:03:07;17.17;;;4.90;;
44384;SDS011;30101;32.778;34.994;2022-10-26T23:08:13;11.20;;;4.60;;
44384;SDS011;30101;32.778;34.994;2022-10-26T23:13:17;9.05;;;4.40;;
44384;SDS011;30101;32.778;34.994;2022-10-26T23:18:21;8.45;;;4.55;;
44384;SDS011;30101;32.778;34.994;2022-10-26T23:23:24;12.32;;;4.93;;
44384;SDS011;30101;32.778;34.994;2022-10-26T23:28:28;8.07;;;4.40;;
44384;SDS011;30101;32.778;34.994;2022-10-26T23:33:32;7.15;;;4.57;;
44384;SDS011;30101;32.778;34.994;2022-10-26T23:38:35;13.13;;;4.78;;
44384;SDS011;30101;32.778;34.994;2022-10-26T23:43:39;12.32;;;5.28;;
44384;SDS011;30101;32.778;34.994;2022-10-26T23:48:43;13.73;;;4.38;;
44384;SDS011;30101;32.778;34.994;2022-10-26T23:53:46;10.80;;;4.70;;
44384;SDS011;30101;32.778;34.994;2022-10-26T23:58:50;9.60;;;4.63;;
